Winnipeg, Canada
Current Conditions -  °F | °C
As of 7:00 AM on Friday 24 Oct 2014 (Local Time) from CYWG Reporting Station
Overcast Overcast  
Wind Chill: 44°   Ceiling: 16000
Heat Index: 48°   Visibility: 15mi
Dew Point: 37°   Wind: 10mph
Humidity: 66%   Direction: 220°SW
Pressure: 29.66"   Gusts: NA
Location:  49.9°N, 97.14°W
Report Text: CYWG 241200Z 22009KT 15SM BKN160 OVC230 09/03 A2966 RMK AC6CI2 SLP050
Loading
Personal Weather Stations






























Interactive Weather Map
Tropical Storm Tracking
New forecast layout! Learn more

10-Day Weather Forecast

Advertisements
Track Severe Weather on mobile